createdAt,value
2018-12-25T00:01:23.713Z,3.30
2018-12-25T00:03:52.281Z,3.30
2018-12-25T00:06:20.713Z,3.20
2018-12-25T00:08:49.380Z,3.20
2018-12-25T00:11:17.856Z,3.20
2018-12-25T00:13:46.209Z,3.20
2018-12-25T00:16:14.609Z,3.20
2018-12-25T00:18:43.056Z,3.10
2018-12-25T00:21:11.362Z,3.10
2018-12-25T00:23:39.640Z,3.10
2018-12-25T00:26:07.960Z,3.10
2018-12-25T00:28:36.375Z,3.10
2018-12-25T00:31:04.849Z,3.00
2018-12-25T00:33:33.173Z,3.00
2018-12-25T00:36:02.467Z,3.00
2018-12-25T00:38:30.732Z,2.90
2018-12-25T00:40:59.894Z,2.80
2018-12-25T00:43:28.396Z,2.80
2018-12-25T00:45:56.661Z,2.80
2018-12-25T00:48:25.842Z,2.80
2018-12-25T00:50:54.326Z,2.80
2018-12-25T00:53:22.669Z,2.80
2018-12-25T00:55:51.043Z,2.80
2018-12-25T00:58:19.339Z,2.80
2018-12-25T01:00:47.631Z,2.70
2018-12-25T01:03:15.947Z,2.70
2018-12-25T01:05:44.324Z,2.70
2018-12-25T01:08:12.923Z,2.70
2018-12-25T01:10:41.206Z,2.60
2018-12-25T01:13:09.511Z,2.60
2018-12-25T01:15:37.962Z,2.60
2018-12-25T01:18:06.346Z,2.50
2018-12-25T01:20:34.670Z,2.50
2018-12-25T01:23:03.028Z,2.50
2018-12-25T01:25:31.325Z,2.50
2018-12-25T01:27:59.936Z,2.50
2018-12-25T01:30:28.266Z,2.50
2018-12-25T01:32:56.574Z,2.50
2018-12-25T01:35:25.887Z,2.50
2018-12-25T01:37:54.203Z,2.50
2018-12-25T01:40:22.551Z,2.50
2018-12-25T01:42:51.009Z,2.50
2018-12-25T01:45:19.335Z,2.50
2018-12-25T01:47:47.733Z,2.50
2018-12-25T01:50:16.155Z,2.50
2018-12-25T01:52:44.485Z,2.50
2018-12-25T01:55:12.766Z,2.50
2018-12-25T01:57:41.071Z,2.50
2018-12-25T02:00:09.749Z,2.40
2018-12-25T02:02:38.073Z,2.30
2018-12-25T02:05:06.389Z,2.10
2018-12-25T02:07:34.858Z,2.10
2018-12-25T02:10:03.415Z,2.10
2018-12-25T02:12:31.691Z,2.20
2018-12-25T02:15:00.262Z,2.20
2018-12-25T02:17:28.627Z,2.20
2018-12-25T02:19:57.373Z,2.20
2018-12-25T02:22:25.702Z,2.20
2018-12-25T02:24:54.036Z,2.20
2018-12-25T02:27:22.366Z,2.10
2018-12-25T02:29:50.942Z,2.20
2018-12-25T02:32:19.553Z,2.20
2018-12-25T02:34:47.993Z,2.20
2018-12-25T02:37:16.296Z,2.20
2018-12-25T02:39:44.854Z,2.10
2018-12-25T02:42:13.158Z,2.00
2018-12-25T02:44:41.566Z,2.00
2018-12-25T02:47:09.992Z,2.00
2018-12-25T02:49:38.436Z,2.00
2018-12-25T02:52:07.370Z,2.10
2018-12-25T02:54:35.664Z,2.10
2018-12-25T02:57:03.970Z,2.10
2018-12-25T02:59:32.219Z,2.10
2018-12-25T03:02:00.526Z,2.10
2018-12-25T03:04:28.958Z,2.10
2018-12-25T03:06:57.422Z,2.00
2018-12-25T03:09:25.872Z,2.10
2018-12-25T03:11:54.342Z,2.10
2018-12-25T03:14:22.612Z,2.10
2018-12-25T03:16:50.915Z,2.00
2018-12-25T03:19:19.365Z,2.10
2018-12-25T03:21:47.835Z,2.10
2018-12-25T03:24:16.110Z,2.10
2018-12-25T03:26:44.400Z,2.00
2018-12-25T03:29:12.722Z,2.00
2018-12-25T03:31:41.120Z,2.00
2018-12-25T03:34:09.458Z,2.10
2018-12-25T03:36:37.786Z,2.00
2018-12-25T03:39:07.105Z,2.00
2018-12-25T03:41:35.471Z,2.00
2018-12-25T03:44:03.743Z,2.00
2018-12-25T03:46:32.232Z,2.00
2018-12-25T03:49:01.899Z,2.00
2018-12-25T03:51:30.365Z,2.10
2018-12-25T03:53:58.731Z,2.10
2018-12-25T03:56:27.006Z,2.10
2018-12-25T03:58:55.309Z,2.20
2018-12-25T04:01:23.747Z,2.20
2018-12-25T04:03:52.050Z,2.20
2018-12-25T04:06:20.333Z,2.20
2018-12-25T04:08:48.902Z,2.10
2018-12-25T04:11:17.332Z,2.10
2018-12-25T04:13:45.633Z,2.10
2018-12-25T04:16:13.939Z,2.10
2018-12-25T04:18:42.289Z,2.10
2018-12-25T04:21:10.649Z,2.20
2018-12-25T04:23:39.124Z,2.20
2018-12-25T04:26:07.652Z,2.20
2018-12-25T04:28:35.936Z,2.20
2018-12-25T04:31:04.324Z,2.20
2018-12-25T04:33:32.614Z,2.30
2018-12-25T04:36:00.992Z,2.30
2018-12-25T04:38:29.605Z,2.30
2018-12-25T04:40:57.930Z,2.40
2018-12-25T04:43:26.326Z,2.40
2018-12-25T04:45:54.711Z,2.40
2018-12-25T04:48:23.052Z,2.50
2018-12-25T04:50:51.485Z,2.40
2018-12-25T04:53:19.871Z,2.40
2018-12-25T04:55:48.219Z,2.50
2018-12-25T04:58:16.603Z,2.50
2018-12-25T05:00:44.874Z,2.60
2018-12-25T05:03:13.353Z,2.60
2018-12-25T05:05:41.760Z,2.70
2018-12-25T05:08:10.267Z,2.60
2018-12-25T05:10:38.613Z,2.60
2018-12-25T05:13:07.004Z,2.60
2018-12-25T05:15:35.280Z,2.70
2018-12-25T05:18:03.731Z,2.70
2018-12-25T05:20:37.780Z,2.70
2018-12-25T05:23:02.464Z,2.70
2018-12-25T05:25:30.809Z,2.70
2018-12-25T05:27:59.112Z,2.60
2018-12-25T05:30:27.548Z,2.60
2018-12-25T05:32:55.850Z,2.20
2018-12-25T05:35:24.259Z,2.20
2018-12-25T05:37:53.165Z,2.30
2018-12-25T05:40:21.494Z,2.30
2018-12-25T05:42:50.034Z,2.40
2018-12-25T05:45:18.375Z,2.30
2018-12-25T05:47:46.648Z,2.40
2018-12-25T05:50:15.235Z,2.40
2018-12-25T05:52:43.689Z,2.40
2018-12-25T05:55:12.235Z,2.40
2018-12-25T05:57:40.653Z,2.50
2018-12-25T06:00:08.961Z,2.50
2018-12-25T06:02:37.612Z,2.50
2018-12-25T06:05:05.899Z,2.60
2018-12-25T06:07:34.607Z,2.60
2018-12-25T06:10:03.082Z,2.60
2018-12-25T06:12:31.360Z,2.60
2018-12-25T06:14:59.659Z,2.70
2018-12-25T06:17:28.003Z,2.70
2018-12-25T06:19:56.314Z,2.80
2018-12-25T06:22:24.829Z,2.70
2018-12-25T06:24:53.103Z,2.80
2018-12-25T06:27:21.616Z,2.70
2018-12-25T06:29:49.938Z,2.70
2018-12-25T06:32:18.254Z,2.70
2018-12-25T06:34:46.848Z,2.60
2018-12-25T06:37:15.152Z,2.60
2018-12-25T06:39:43.422Z,2.60
2018-12-25T06:42:11.758Z,2.70
2018-12-25T06:44:40.025Z,2.70
2018-12-25T06:47:08.340Z,2.70
2018-12-25T06:49:36.687Z,2.70
2018-12-25T06:52:04.989Z,2.70
2018-12-25T06:54:33.533Z,2.70
2018-12-25T06:57:01.942Z,2.60
2018-12-25T06:59:30.381Z,2.60
2018-12-25T07:02:04.877Z,2.60
2018-12-25T07:04:33.143Z,2.60
2018-12-25T07:07:01.482Z,2.60
2018-12-25T07:09:29.793Z,2.60
2018-12-25T07:11:58.233Z,2.60
2018-12-25T07:14:26.562Z,2.60
2018-12-25T07:16:54.829Z,2.50
2018-12-25T07:19:23.190Z,2.50
2018-12-25T07:21:51.643Z,2.50
2018-12-25T07:24:19.935Z,2.50
2018-12-25T07:26:48.223Z,2.50
2018-12-25T07:29:16.530Z,2.50
2018-12-25T07:31:45.007Z,2.50
2018-12-25T07:34:13.299Z,2.40
2018-12-25T07:36:41.809Z,2.40
2018-12-25T07:39:11.295Z,2.40
2018-12-25T07:41:39.626Z,2.40
2018-12-25T07:44:07.925Z,2.50
2018-12-25T07:46:36.400Z,2.50
2018-12-25T07:49:04.729Z,2.50
2018-12-25T07:51:33.125Z,2.50
2018-12-25T07:54:01.711Z,2.50
2018-12-25T07:56:30.021Z,2.50
2018-12-25T07:58:58.341Z,2.60
2018-12-25T08:01:26.715Z,2.60
2018-12-25T08:03:55.206Z,2.60
2018-12-25T08:06:23.550Z,2.60
2018-12-25T08:08:51.927Z,2.60
2018-12-25T08:11:20.696Z,2.60
2018-12-25T08:13:49.006Z,2.60
2018-12-25T08:16:17.327Z,2.60
2018-12-25T08:18:45.695Z,2.60
2018-12-25T08:21:14.228Z,2.60
2018-12-25T08:23:42.680Z,2.70
2018-12-25T08:26:11.187Z,2.70
2018-12-25T08:28:39.459Z,2.70
2018-12-25T08:31:08.260Z,2.80
2018-12-25T08:33:36.727Z,2.80
2018-12-25T08:36:05.326Z,2.80
2018-12-25T08:38:33.715Z,2.90
2018-12-25T08:41:02.192Z,2.90
2018-12-25T08:43:30.490Z,3.00
2018-12-25T08:45:58.947Z,3.10
2018-12-25T08:48:27.547Z,3.10
2018-12-25T08:50:55.894Z,3.10
2018-12-25T08:53:24.291Z,3.10
2018-12-25T08:55:52.938Z,3.20
2018-12-25T08:58:21.350Z,3.20
2018-12-25T09:00:49.610Z,3.20
2018-12-25T09:03:18.085Z,3.30
2018-12-25T09:05:46.360Z,3.30
2018-12-25T09:08:14.665Z,3.30
2018-12-25T09:10:43.208Z,3.30
2018-12-25T09:13:11.637Z,3.40
2018-12-25T09:15:39.935Z,3.40
2018-12-25T09:18:08.313Z,3.40
2018-12-25T09:20:36.773Z,3.40
2018-12-25T09:23:05.215Z,3.40
2018-12-25T09:25:33.628Z,3.50
2018-12-25T09:28:02.429Z,3.50
2018-12-25T09:30:30.839Z,3.50
2018-12-25T09:32:59.153Z,3.50
2018-12-25T09:35:27.453Z,3.50
2018-12-25T09:37:55.722Z,3.50
2018-12-25T09:40:24.124Z,3.50
2018-12-25T09:42:52.459Z,3.50
2018-12-25T09:45:20.756Z,3.50
2018-12-25T09:47:49.081Z,3.50
2018-12-25T09:50:17.548Z,3.50
2018-12-25T09:52:46.039Z,3.60
2018-12-25T09:55:14.337Z,3.60
2018-12-25T09:57:42.638Z,3.70
2018-12-25T10:00:10.961Z,3.70
2018-12-25T10:02:39.413Z,3.80
2018-12-25T10:05:07.827Z,3.90
2018-12-25T10:07:36.132Z,3.90
2018-12-25T10:10:05.498Z,3.90
2018-12-25T10:12:34.127Z,3.90
2018-12-25T10:15:02.436Z,3.90
2018-12-25T10:17:31.109Z,3.90
2018-12-25T10:19:59.476Z,3.90
2018-12-25T10:22:27.784Z,3.80
2018-12-25T10:24:56.058Z,3.80
2018-12-25T10:27:24.356Z,3.90
2018-12-25T10:29:52.887Z,3.90
2018-12-25T10:32:21.206Z,3.90
2018-12-25T10:34:49.502Z,3.80
2018-12-25T10:37:17.826Z,3.80
2018-12-25T10:39:46.106Z,3.50
2018-12-25T10:42:14.417Z,3.30
2018-12-25T10:44:43.059Z,3.40
2018-12-25T10:47:11.379Z,3.40
2018-12-25T10:49:40.128Z,3.60
2018-12-25T10:52:11.824Z,3.70
2018-12-25T10:54:38.540Z,3.70
2018-12-25T10:57:06.993Z,3.80
2018-12-25T10:59:35.261Z,3.90
2018-12-25T11:02:03.994Z,4.00
2018-12-25T11:04:32.533Z,4.00
2018-12-25T11:07:01.034Z,4.10
2018-12-25T11:09:29.515Z,4.20
2018-12-25T11:11:57.911Z,4.20
2018-12-25T11:14:26.268Z,4.20
2018-12-25T11:16:54.675Z,4.20
2018-12-25T11:19:23.125Z,4.20
2018-12-25T11:21:51.483Z,4.20
2018-12-25T11:24:19.827Z,4.30
2018-12-25T11:26:48.118Z,4.30
2018-12-25T11:29:16.683Z,4.40
2018-12-25T11:31:45.030Z,4.40
2018-12-25T11:34:14.205Z,4.40
2018-12-25T11:36:42.630Z,4.40
2018-12-25T11:39:10.934Z,4.50
2018-12-25T11:41:39.282Z,4.50
2018-12-25T11:44:07.574Z,4.50
2018-12-25T11:46:36.196Z,4.60
2018-12-25T11:49:04.525Z,4.60
2018-12-25T11:51:32.836Z,4.60
2018-12-25T11:54:01.343Z,4.60
2018-12-25T11:56:29.807Z,4.60
2018-12-25T11:58:59.734Z,4.60
2018-12-25T12:01:28.062Z,4.60
2018-12-25T12:03:56.512Z,4.60
2018-12-25T12:06:25.006Z,4.40
2018-12-25T12:08:53.286Z,4.30
2018-12-25T12:11:21.749Z,4.30
2018-12-25T12:13:50.025Z,4.30
2018-12-25T12:16:18.339Z,4.40
2018-12-25T12:18:46.676Z,4.40
2018-12-25T12:21:15.181Z,4.40
2018-12-25T12:23:43.646Z,4.30
2018-12-25T12:26:11.902Z,4.30
2018-12-25T12:28:40.257Z,4.20
2018-12-25T12:31:08.598Z,4.00
2018-12-25T12:33:36.953Z,4.10
2018-12-25T12:36:05.240Z,4.00
2018-12-25T12:38:33.707Z,3.80
2018-12-25T12:41:02.325Z,3.70
2018-12-25T12:43:30.634Z,3.80
2018-12-25T12:45:59.082Z,3.80
2018-12-25T12:48:27.388Z,3.80
2018-12-25T12:50:55.731Z,3.90
2018-12-25T12:53:24.252Z,3.90
2018-12-25T12:55:52.595Z,4.00
2018-12-25T12:58:20.906Z,4.10
2018-12-25T13:00:49.201Z,4.20
2018-12-25T13:03:17.499Z,4.10
2018-12-25T13:05:45.963Z,4.10
2018-12-25T13:08:14.290Z,4.10
2018-12-25T13:10:42.731Z,4.00
2018-12-25T13:13:11.032Z,4.00
2018-12-25T13:15:39.300Z,4.00
2018-12-25T13:18:07.619Z,4.00
2018-12-25T13:20:35.954Z,4.00
2018-12-25T13:23:04.232Z,4.10
2018-12-25T13:25:32.538Z,4.10
2018-12-25T13:28:00.823Z,4.10
2018-12-25T13:30:29.147Z,4.00
2018-12-25T13:32:57.488Z,3.90
2018-12-25T13:35:25.837Z,4.00
2018-12-25T13:37:54.197Z,4.00
2018-12-25T13:40:22.524Z,4.00
2018-12-25T13:42:51.284Z,4.00
2018-12-25T13:45:19.604Z,4.00
2018-12-25T13:47:47.882Z,4.00
2018-12-25T13:50:16.401Z,4.00
2018-12-25T13:52:44.779Z,3.90
2018-12-25T13:55:13.074Z,3.90
2018-12-25T13:57:41.427Z,3.90
2018-12-25T14:00:11.055Z,3.90
2018-12-25T14:02:39.338Z,4.00
2018-12-25T14:05:07.631Z,4.00
2018-12-25T14:07:36.216Z,4.00
2018-12-25T14:10:07.976Z,4.00
2018-12-25T14:12:36.243Z,4.00
2018-12-25T14:15:05.195Z,4.00
2018-12-25T14:17:33.950Z,4.00
2018-12-25T14:20:03.182Z,4.00
2018-12-25T14:22:32.389Z,4.00
2018-12-25T14:25:00.672Z,4.00
2018-12-25T14:27:28.961Z,4.00
2018-12-25T14:29:57.237Z,4.00
2018-12-25T14:32:25.576Z,4.00
2018-12-25T14:34:53.867Z,4.10
2018-12-25T14:37:22.218Z,4.10
2018-12-25T14:39:50.730Z,4.20
2018-12-25T14:42:19.038Z,4.20
2018-12-25T14:44:47.393Z,4.20
2018-12-25T14:47:16.756Z,4.30
2018-12-25T14:49:45.295Z,4.30
2018-12-25T14:52:13.710Z,4.20
2018-12-25T14:54:41.971Z,4.30
2018-12-25T14:57:10.426Z,4.30
2018-12-25T14:59:38.891Z,4.30
2018-12-25T15:02:07.326Z,4.20
2018-12-25T15:04:35.705Z,4.20
2018-12-25T15:07:04.113Z,4.20
2018-12-25T15:09:32.788Z,4.20
2018-12-25T15:12:01.163Z,4.20
2018-12-25T15:14:29.503Z,4.00
2018-12-25T15:16:57.866Z,4.00
2018-12-25T15:19:26.321Z,4.10
2018-12-25T15:21:54.670Z,4.10
2018-12-25T15:24:23.185Z,4.10
2018-12-25T15:26:51.461Z,3.90
2018-12-25T15:29:19.766Z,4.00
2018-12-25T15:31:48.205Z,3.90
2018-12-25T15:34:16.574Z,4.00
2018-12-25T15:36:44.959Z,4.00
2018-12-25T15:39:13.349Z,3.90
2018-12-25T15:41:41.627Z,4.00
2018-12-25T15:44:10.196Z,4.00
2018-12-25T15:46:38.540Z,4.00
2018-12-25T15:49:07.025Z,4.00
2018-12-25T15:51:35.369Z,4.00
2018-12-25T15:54:03.772Z,4.10
2018-12-25T15:56:32.356Z,4.00
2018-12-25T15:59:00.641Z,4.00
2018-12-25T16:01:29.016Z,4.10
2018-12-25T16:03:57.552Z,4.10
2018-12-25T16:06:25.971Z,4.10
2018-12-25T16:08:54.385Z,4.10
2018-12-25T16:11:22.964Z,4.10
2018-12-25T16:13:51.294Z,4.10
2018-12-25T16:16:19.730Z,4.20
2018-12-25T16:18:48.046Z,4.10
2018-12-25T16:21:16.376Z,4.10
2018-12-25T16:23:45.585Z,4.10
2018-12-25T16:26:14.692Z,4.10
2018-12-25T16:28:43.241Z,4.10
2018-12-25T16:31:11.706Z,4.10
2018-12-25T16:33:39.972Z,4.10
2018-12-25T16:36:08.870Z,4.10
2018-12-25T16:38:37.257Z,4.10
2018-12-25T16:41:05.589Z,4.10
2018-12-25T16:43:34.090Z,4.00
2018-12-25T16:46:02.462Z,4.00
2018-12-25T16:48:30.779Z,4.00
2018-12-25T16:50:59.088Z,4.10
2018-12-25T16:53:27.462Z,4.00
2018-12-25T16:55:55.728Z,4.10
2018-12-25T16:58:24.203Z,4.00
2018-12-25T17:00:52.484Z,4.10
2018-12-25T17:03:20.873Z,4.10
2018-12-25T17:05:49.149Z,4.10
2018-12-25T17:08:17.633Z,4.00
2018-12-25T17:10:45.954Z,4.00
2018-12-25T17:13:14.245Z,4.00
2018-12-25T17:15:42.515Z,4.00
2018-12-25T17:18:10.831Z,3.90
2018-12-25T17:20:39.349Z,3.90
2018-12-25T17:23:07.737Z,4.00
2018-12-25T17:25:36.031Z,4.00
2018-12-25T17:28:04.346Z,4.00
2018-12-25T17:30:32.810Z,4.00
2018-12-25T17:33:01.111Z,4.00
2018-12-25T17:35:29.602Z,4.00
2018-12-25T17:37:58.068Z,4.00
2018-12-25T17:40:26.521Z,4.00
2018-12-25T17:42:54.822Z,4.00
2018-12-25T17:45:23.151Z,4.00
2018-12-25T17:47:51.520Z,4.00
2018-12-25T17:50:20.091Z,3.90
2018-12-25T17:52:48.405Z,4.00
2018-12-25T17:55:17.481Z,3.90
2018-12-25T17:57:45.769Z,3.90
2018-12-25T18:00:14.075Z,3.90
2018-12-25T18:02:42.361Z,3.80
2018-12-25T18:05:12.091Z,3.70
2018-12-25T18:07:40.881Z,3.70
2018-12-25T18:10:09.218Z,3.60
2018-12-25T18:12:37.808Z,3.70
2018-12-25T18:15:06.265Z,3.60
2018-12-25T18:17:34.885Z,3.60
2018-12-25T18:20:03.239Z,3.70
2018-12-25T18:22:31.681Z,3.70
2018-12-25T18:25:00.170Z,3.80
2018-12-25T18:27:28.489Z,3.80
2018-12-25T18:29:56.889Z,3.80
2018-12-25T18:32:25.182Z,3.80
2018-12-25T18:34:53.561Z,3.80
2018-12-25T18:37:22.037Z,3.80
2018-12-25T18:39:54.676Z,3.80
2018-12-25T18:42:23.385Z,3.90
2018-12-25T18:44:51.776Z,3.80
2018-12-25T18:47:20.367Z,3.90
2018-12-25T18:49:49.872Z,3.80
2018-12-25T18:52:18.147Z,3.90
2018-12-25T18:54:46.541Z,3.90
2018-12-25T18:57:14.835Z,3.90
2018-12-25T18:59:43.202Z,3.90
2018-12-25T19:02:11.505Z,3.90
2018-12-25T19:04:39.801Z,4.00
2018-12-25T19:07:08.241Z,4.00
2018-12-25T19:09:36.592Z,3.90
2018-12-25T19:12:05.763Z,3.90
2018-12-25T19:14:34.213Z,3.90
2018-12-25T19:17:02.517Z,3.90
2018-12-25T19:19:30.870Z,3.80
2018-12-25T19:21:59.259Z,3.80
2018-12-25T19:24:36.065Z,3.80
2018-12-25T19:26:57.999Z,3.80
2018-12-25T19:29:26.287Z,3.80
2018-12-25T19:31:56.505Z,3.90
2018-12-25T19:34:24.860Z,3.90
2018-12-25T19:36:53.203Z,3.90
2018-12-25T19:39:21.499Z,3.80
2018-12-25T19:41:50.602Z,3.80
2018-12-25T19:44:19.046Z,3.80
2018-12-25T19:46:47.629Z,3.80
2018-12-25T19:49:15.924Z,3.90
2018-12-25T19:51:44.636Z,3.80
2018-12-25T19:54:12.945Z,3.80
2018-12-25T19:56:41.229Z,3.80
2018-12-25T19:59:09.602Z,3.80
2018-12-25T20:01:37.895Z,3.80
2018-12-25T20:04:11.073Z,3.70
2018-12-25T20:07:01.024Z,3.50
2018-12-25T20:09:51.037Z,3.40
2018-12-25T20:12:39.315Z,3.40
2018-12-25T20:15:26.140Z,3.50
2018-12-25T20:18:27.210Z,3.50
2018-12-25T20:21:20.226Z,3.50
2018-12-25T20:24:03.920Z,3.60
2018-12-25T20:26:44.653Z,3.50
2018-12-25T20:29:41.509Z,3.40
2018-12-25T20:32:16.421Z,3.30
2018-12-25T20:34:53.847Z,3.10
2018-12-25T20:37:54.336Z,3.10
2018-12-25T20:40:28.622Z,3.10
2018-12-25T20:43:29.227Z,3.10
2018-12-25T20:45:59.022Z,3.20
2018-12-25T20:48:42.881Z,3.20
2018-12-25T20:51:23.798Z,3.20
2018-12-25T20:54:22.906Z,3.10
2018-12-25T20:56:57.170Z,3.10
2018-12-25T20:59:56.453Z,3.00
2018-12-25T21:02:55.429Z,3.00
2018-12-25T21:05:52.799Z,3.00
2018-12-25T21:08:39.296Z,3.00
2018-12-25T21:11:33.274Z,3.10
2018-12-25T21:14:21.528Z,3.10
2018-12-25T21:17:22.031Z,3.20
2018-12-25T21:20:05.766Z,3.10
2018-12-25T21:23:10.811Z,3.10
2018-12-25T21:26:15.648Z,3.20
2018-12-25T21:28:44.098Z,3.00
2018-12-25T21:31:12.559Z,3.00
2018-12-25T21:33:41.745Z,2.90
2018-12-25T21:36:10.152Z,2.90
2018-12-25T21:38:38.457Z,2.70
2018-12-25T21:41:07.715Z,2.70
2018-12-25T21:43:38.323Z,2.60
2018-12-25T21:46:06.653Z,2.60
2018-12-25T21:48:35.016Z,2.60
2018-12-25T21:51:03.466Z,2.50
2018-12-25T21:53:32.202Z,2.50
2018-12-25T21:56:00.764Z,2.40
2018-12-25T21:58:29.173Z,2.40
2018-12-25T22:00:57.750Z,2.50
2018-12-25T22:03:26.125Z,2.50
2018-12-25T22:05:54.521Z,2.50
2018-12-25T22:08:22.913Z,2.60
2018-12-25T22:10:51.336Z,2.50
2018-12-25T22:13:20.088Z,2.50
2018-12-25T22:15:48.521Z,2.60
2018-12-25T22:18:17.545Z,2.60
2018-12-25T22:20:46.228Z,2.60
2018-12-25T22:23:14.653Z,2.50
2018-12-25T22:25:43.941Z,2.60
2018-12-25T22:28:13.019Z,2.60
2018-12-25T22:30:41.686Z,2.70
2018-12-25T22:33:10.463Z,2.70
2018-12-25T22:35:38.906Z,2.70
2018-12-25T22:38:07.240Z,2.70
2018-12-25T22:40:35.835Z,2.70
2018-12-25T22:43:04.231Z,2.80
2018-12-25T22:45:33.051Z,2.80
2018-12-25T22:48:02.064Z,2.80
2018-12-25T22:50:30.703Z,2.80
2018-12-25T22:52:59.911Z,2.90
2018-12-25T22:55:35.581Z,2.90
2018-12-25T22:57:58.582Z,2.90
2018-12-25T23:00:27.108Z,2.90
2018-12-25T23:02:55.505Z,2.90
2018-12-25T23:05:24.069Z,2.90
2018-12-25T23:07:53.525Z,2.90
2018-12-25T23:10:22.194Z,2.90
2018-12-25T23:12:50.771Z,2.70
2018-12-25T23:15:19.195Z,2.60
2018-12-25T23:17:47.882Z,2.40
2018-12-25T23:20:16.336Z,2.40
2018-12-25T23:22:44.670Z,2.40
2018-12-25T23:25:13.148Z,2.40
2018-12-25T23:27:41.593Z,2.40
2018-12-25T23:30:09.886Z,2.40
2018-12-25T23:32:38.362Z,2.40
2018-12-25T23:35:06.913Z,2.50
2018-12-25T23:37:35.470Z,2.50
2018-12-25T23:40:05.848Z,2.50
2018-12-25T23:42:34.422Z,2.50
2018-12-25T23:45:03.047Z,2.50
2018-12-25T23:47:31.566Z,2.60
2018-12-25T23:49:59.960Z,2.60
2018-12-25T23:52:28.265Z,2.60
2018-12-25T23:54:56.555Z,2.70
2018-12-25T23:57:24.933Z,2.70
2018-12-25T23:59:54.072Z,2.70
